sensor_id;sensor_type;location;lat;lon;timestamp;P1;durP1;ratioP1;P2;durP2;ratioP2
49440;SDS011;35317;51.978;6.296;2023-08-06T00:03:17;24.45;;;17.00;;
49440;SDS011;35317;51.978;6.296;2023-08-06T00:08:17;23.27;;;16.83;;
49440;SDS011;35317;51.978;6.296;2023-08-06T00:13:18;19.15;;;16.08;;
49440;SDS011;35317;51.978;6.296;2023-08-06T00:18:19;20.58;;;16.38;;
49440;SDS011;35317;51.978;6.296;2023-08-06T00:23:20;21.52;;;16.08;;
49440;SDS011;35317;51.978;6.296;2023-08-06T00:28:22;19.98;;;15.77;;
49440;SDS011;35317;51.978;6.296;2023-08-06T00:33:23;21.90;;;16.75;;
49440;SDS011;35317;51.978;6.296;2023-08-06T00:38:24;21.20;;;16.75;;
49440;SDS011;35317;51.978;6.296;2023-08-06T00:43:25;22.25;;;16.83;;
49440;SDS011;35317;51.978;6.296;2023-08-06T00:48:25;23.63;;;17.08;;
49440;SDS011;35317;51.978;6.296;2023-08-06T00:53:27;21.27;;;15.73;;
49440;SDS011;35317;51.978;6.296;2023-08-06T00:58:27;21.27;;;16.58;;
49440;SDS011;35317;51.978;6.296;2023-08-06T01:03:28;23.67;;;17.65;;
49440;SDS011;35317;51.978;6.296;2023-08-06T01:19:30;30.25;;;17.55;;
49440;SDS011;35317;51.978;6.296;2023-08-06T01:24:31;26.50;;;17.70;;
49440;SDS011;35317;51.978;6.296;2023-08-06T01:29:38;23.48;;;17.70;;
49440;SDS011;35317;51.978;6.296;2023-08-06T01:34:45;25.42;;;17.05;;
49440;SDS011;35317;51.978;6.296;2023-08-06T01:39:47;24.80;;;17.52;;
49440;SDS011;35317;51.978;6.296;2023-08-06T01:44:48;23.27;;;17.40;;
49440;SDS011;35317;51.978;6.296;2023-08-06T01:49:49;26.10;;;17.80;;
49440;SDS011;35317;51.978;6.296;2023-08-06T01:54:50;28.23;;;17.48;;
49440;SDS011;35317;51.978;6.296;2023-08-06T01:59:50;26.98;;;16.90;;
49440;SDS011;35317;51.978;6.296;2023-08-06T02:04:51;23.65;;;17.55;;
49440;SDS011;35317;51.978;6.296;2023-08-06T02:09:52;33.17;;;19.55;;
49440;SDS011;35317;51.978;6.296;2023-08-06T02:14:53;26.90;;;17.08;;
49440;SDS011;35317;51.978;6.296;2023-08-06T02:19:53;24.73;;;17.50;;
49440;SDS011;35317;51.978;6.296;2023-08-06T02:24:54;25.95;;;18.38;;
49440;SDS011;35317;51.978;6.296;2023-08-06T02:29:55;27.30;;;17.13;;
49440;SDS011;35317;51.978;6.296;2023-08-06T02:34:56;24.65;;;16.98;;
49440;SDS011;35317;51.978;6.296;2023-08-06T02:39:57;26.35;;;18.10;;
49440;SDS011;35317;51.978;6.296;2023-08-06T02:44:58;30.15;;;17.33;;
49440;SDS011;35317;51.978;6.296;2023-08-06T02:49:58;31.40;;;18.88;;
49440;SDS011;35317;51.978;6.296;2023-08-06T02:54:59;24.33;;;17.00;;
49440;SDS011;35317;51.978;6.296;2023-08-06T03:00:00;29.58;;;17.83;;
49440;SDS011;35317;51.978;6.296;2023-08-06T03:05:01;23.58;;;17.77;;
49440;SDS011;35317;51.978;6.296;2023-08-06T03:10:02;27.23;;;16.90;;
49440;SDS011;35317;51.978;6.296;2023-08-06T03:15:03;22.73;;;15.80;;
49440;SDS011;35317;51.978;6.296;2023-08-06T03:20:04;23.85;;;16.60;;
49440;SDS011;35317;51.978;6.296;2023-08-06T03:25:06;25.45;;;16.92;;
49440;SDS011;35317;51.978;6.296;2023-08-06T03:30:07;25.35;;;16.38;;
49440;SDS011;35317;51.978;6.296;2023-08-06T03:35:08;25.30;;;16.67;;
49440;SDS011;35317;51.978;6.296;2023-08-06T03:40:09;22.45;;;15.07;;
49440;SDS011;35317;51.978;6.296;2023-08-06T03:45:10;19.52;;;15.85;;
49440;SDS011;35317;51.978;6.296;2023-08-06T03:50:11;21.05;;;16.23;;
49440;SDS011;35317;51.978;6.296;2023-08-06T03:55:13;19.35;;;15.20;;
49440;SDS011;35317;51.978;6.296;2023-08-06T04:00:14;19.52;;;14.93;;
49440;SDS011;35317;51.978;6.296;2023-08-06T04:05:14;20.55;;;15.18;;
49440;SDS011;35317;51.978;6.296;2023-08-06T04:10:16;19.90;;;14.65;;
49440;SDS011;35317;51.978;6.296;2023-08-06T04:15:16;20.67;;;14.75;;
49440;SDS011;35317;51.978;6.296;2023-08-06T04:20:17;20.02;;;14.77;;
49440;SDS011;35317;51.978;6.296;2023-08-06T04:25:18;19.45;;;14.25;;
49440;SDS011;35317;51.978;6.296;2023-08-06T04:30:21;24.52;;;15.98;;
49440;SDS011;35317;51.978;6.296;2023-08-06T04:35:21;20.98;;;15.25;;
49440;SDS011;35317;51.978;6.296;2023-08-06T04:40:22;27.02;;;17.30;;
49440;SDS011;35317;51.978;6.296;2023-08-06T04:45:23;25.75;;;18.20;;
49440;SDS011;35317;51.978;6.296;2023-08-06T04:50:24;27.42;;;18.60;;
49440;SDS011;35317;51.978;6.296;2023-08-06T04:55:25;25.15;;;18.05;;
49440;SDS011;35317;51.978;6.296;2023-08-06T05:00:26;33.00;;;19.27;;
49440;SDS011;35317;51.978;6.296;2023-08-06T05:05:27;27.92;;;18.42;;
49440;SDS011;35317;51.978;6.296;2023-08-06T05:10:28;27.25;;;19.40;;
49440;SDS011;35317;51.978;6.296;2023-08-06T05:15:29;30.77;;;18.95;;
49440;SDS011;35317;51.978;6.296;2023-08-06T05:20:30;26.92;;;18.23;;
49440;SDS011;35317;51.978;6.296;2023-08-06T05:25:31;27.75;;;18.27;;
49440;SDS011;35317;51.978;6.296;2023-08-06T05:30:32;26.02;;;18.52;;
49440;SDS011;35317;51.978;6.296;2023-08-06T05:35:32;26.42;;;17.67;;
49440;SDS011;35317;51.978;6.296;2023-08-06T05:40:34;24.23;;;18.52;;
49440;SDS011;35317;51.978;6.296;2023-08-06T05:45:34;26.08;;;19.30;;
49440;SDS011;35317;51.978;6.296;2023-08-06T05:50:35;30.13;;;18.27;;
49440;SDS011;35317;51.978;6.296;2023-08-06T05:55:36;24.38;;;18.48;;
49440;SDS011;35317;51.978;6.296;2023-08-06T06:00:37;26.38;;;18.42;;
49440;SDS011;35317;51.978;6.296;2023-08-06T06:05:38;26.42;;;19.13;;
49440;SDS011;35317;51.978;6.296;2023-08-06T06:10:39;22.88;;;17.98;;
49440;SDS011;35317;51.978;6.296;2023-08-06T06:15:39;23.60;;;18.40;;
49440;SDS011;35317;51.978;6.296;2023-08-06T06:20:40;20.95;;;17.25;;
49440;SDS011;35317;51.978;6.296;2023-08-06T06:25:42;24.77;;;18.50;;
49440;SDS011;35317;51.978;6.296;2023-08-06T06:30:44;22.27;;;17.48;;
49440;SDS011;35317;51.978;6.296;2023-08-06T06:35:44;19.75;;;17.55;;
49440;SDS011;35317;51.978;6.296;2023-08-06T06:40:55;22.23;;;17.42;;
49440;SDS011;35317;51.978;6.296;2023-08-06T06:45:57;20.52;;;17.77;;
49440;SDS011;35317;51.978;6.296;2023-08-06T06:51:01;19.75;;;17.63;;
49440;SDS011;35317;51.978;6.296;2023-08-06T06:56:02;20.17;;;17.13;;
49440;SDS011;35317;51.978;6.296;2023-08-06T07:01:04;20.17;;;16.63;;
49440;SDS011;35317;51.978;6.296;2023-08-06T07:06:06;21.90;;;18.55;;
49440;SDS011;35317;51.978;6.296;2023-08-06T07:11:06;24.48;;;18.00;;
49440;SDS011;35317;51.978;6.296;2023-08-06T07:16:07;18.90;;;16.73;;
49440;SDS011;35317;51.978;6.296;2023-08-06T07:21:08;21.33;;;17.27;;
49440;SDS011;35317;51.978;6.296;2023-08-06T07:26:09;20.75;;;16.60;;
49440;SDS011;35317;51.978;6.296;2023-08-06T07:31:09;20.73;;;17.35;;
49440;SDS011;35317;51.978;6.296;2023-08-06T07:36:11;18.88;;;16.88;;
49440;SDS011;35317;51.978;6.296;2023-08-06T07:41:13;19.27;;;17.17;;
49440;SDS011;35317;51.978;6.296;2023-08-06T07:46:14;23.73;;;17.80;;
49440;SDS011;35317;51.978;6.296;2023-08-06T07:51:15;19.92;;;17.73;;
49440;SDS011;35317;51.978;6.296;2023-08-06T07:56:16;20.30;;;18.10;;
49440;SDS011;35317;51.978;6.296;2023-08-06T08:01:16;20.40;;;17.83;;
49440;SDS011;35317;51.978;6.296;2023-08-06T08:06:17;21.65;;;18.65;;
49440;SDS011;35317;51.978;6.296;2023-08-06T08:11:18;20.92;;;18.63;;
49440;SDS011;35317;51.978;6.296;2023-08-06T08:16:20;21.13;;;18.02;;
49440;SDS011;35317;51.978;6.296;2023-08-06T08:21:21;19.60;;;17.48;;
49440;SDS011;35317;51.978;6.296;2023-08-06T08:26:24;19.27;;;16.45;;
49440;SDS011;35317;51.978;6.296;2023-08-06T08:31:27;18.33;;;16.53;;
49440;SDS011;35317;51.978;6.296;2023-08-06T08:36:28;17.20;;;15.00;;
49440;SDS011;35317;51.978;6.296;2023-08-06T08:41:29;15.00;;;13.50;;
49440;SDS011;35317;51.978;6.296;2023-08-06T08:46:31;15.75;;;14.15;;
49440;SDS011;35317;51.978;6.296;2023-08-06T08:51:33;17.58;;;13.65;;
49440;SDS011;35317;51.978;6.296;2023-08-06T08:56:37;16.65;;;13.70;;
49440;SDS011;35317;51.978;6.296;2023-08-06T09:01:38;15.05;;;13.50;;
49440;SDS011;35317;51.978;6.296;2023-08-06T09:06:42;11.80;;;10.77;;
49440;SDS011;35317;51.978;6.296;2023-08-06T09:11:46;12.27;;;11.18;;
49440;SDS011;35317;51.978;6.296;2023-08-06T09:16:49;11.70;;;10.60;;
49440;SDS011;35317;51.978;6.296;2023-08-06T09:21:51;12.27;;;10.88;;
49440;SDS011;35317;51.978;6.296;2023-08-06T09:26:53;11.47;;;10.37;;
49440;SDS011;35317;51.978;6.296;2023-08-06T09:31:54;11.43;;;10.32;;
49440;SDS011;35317;51.978;6.296;2023-08-06T09:36:55;11.63;;;10.52;;
49440;SDS011;35317;51.978;6.296;2023-08-06T09:41:59;11.50;;;10.50;;
49440;SDS011;35317;51.978;6.296;2023-08-06T09:47:02;11.05;;;10.13;;
49440;SDS011;35317;51.978;6.296;2023-08-06T09:52:04;12.02;;;10.88;;
49440;SDS011;35317;51.978;6.296;2023-08-06T09:57:06;11.35;;;10.32;;
49440;SDS011;35317;51.978;6.296;2023-08-06T10:02:10;12.77;;;10.50;;
49440;SDS011;35317;51.978;6.296;2023-08-06T10:07:14;11.95;;;10.95;;
49440;SDS011;35317;51.978;6.296;2023-08-06T10:12:15;12.50;;;11.38;;
49440;SDS011;35317;51.978;6.296;2023-08-06T10:17:20;12.40;;;11.20;;
49440;SDS011;35317;51.978;6.296;2023-08-06T10:22:22;11.80;;;10.70;;
49440;SDS011;35317;51.978;6.296;2023-08-06T10:27:31;11.73;;;10.60;;
49440;SDS011;35317;51.978;6.296;2023-08-06T10:32:55;11.50;;;10.50;;
49440;SDS011;35317;51.978;6.296;2023-08-06T10:37:58;12.05;;;11.05;;
49440;SDS011;35317;51.978;6.296;2023-08-06T10:43:39;12.17;;;10.97;;
49440;SDS011;35317;51.978;6.296;2023-08-06T10:48:42;12.25;;;11.18;;
49440;SDS011;35317;51.978;6.296;2023-08-06T10:53:46;12.32;;;11.27;;
49440;SDS011;35317;51.978;6.296;2023-08-06T10:58:50;12.82;;;11.63;;
49440;SDS011;35317;51.978;6.296;2023-08-06T11:03:53;13.85;;;12.65;;
49440;SDS011;35317;51.978;6.296;2023-08-06T11:08:55;14.43;;;13.10;;
49440;SDS011;35317;51.978;6.296;2023-08-06T11:13:55;14.65;;;13.25;;
49440;SDS011;35317;51.978;6.296;2023-08-06T11:18:56;14.43;;;13.13;;
49440;SDS011;35317;51.978;6.296;2023-08-06T11:23:59;13.17;;;11.87;;
49440;SDS011;35317;51.978;6.296;2023-08-06T11:29:00;11.48;;;10.45;;
49440;SDS011;35317;51.978;6.296;2023-08-06T11:34:01;12.05;;;10.85;;
49440;SDS011;35317;51.978;6.296;2023-08-06T11:39:03;13.95;;;12.57;;
49440;SDS011;35317;51.978;6.296;2023-08-06T11:44:06;12.60;;;11.40;;
49440;SDS011;35317;51.978;6.296;2023-08-06T11:49:12;12.82;;;11.60;;
49440;SDS011;35317;51.978;6.296;2023-08-06T11:54:12;10.02;;;9.13;;
49440;SDS011;35317;51.978;6.296;2023-08-06T11:59:13;5.82;;;5.43;;
49440;SDS011;35317;51.978;6.296;2023-08-06T12:04:15;5.68;;;5.38;;
49440;SDS011;35317;51.978;6.296;2023-08-06T12:09:16;5.22;;;4.93;;
49440;SDS011;35317;51.978;6.296;2023-08-06T12:14:16;5.60;;;5.30;;
49440;SDS011;35317;51.978;6.296;2023-08-06T12:19:17;5.45;;;5.22;;
49440;SDS011;35317;51.978;6.296;2023-08-06T12:24:18;5.45;;;5.22;;
49440;SDS011;35317;51.978;6.296;2023-08-06T12:29:19;5.95;;;5.65;;
49440;SDS011;35317;51.978;6.296;2023-08-06T12:34:19;5.93;;;5.63;;
49440;SDS011;35317;51.978;6.296;2023-08-06T12:39:20;5.93;;;5.57;;
49440;SDS011;35317;51.978;6.296;2023-08-06T12:44:21;6.20;;;5.90;;
49440;SDS011;35317;51.978;6.296;2023-08-06T12:49:22;6.70;;;6.30;;
49440;SDS011;35317;51.978;6.296;2023-08-06T12:54:24;6.13;;;5.75;;
49440;SDS011;35317;51.978;6.296;2023-08-06T12:59:24;6.03;;;5.70;;
49440;SDS011;35317;51.978;6.296;2023-08-06T13:04:25;6.18;;;5.82;;
49440;SDS011;35317;51.978;6.296;2023-08-06T13:09:26;6.53;;;6.20;;
49440;SDS011;35317;51.978;6.296;2023-08-06T13:14:27;5.85;;;5.55;;
49440;SDS011;35317;51.978;6.296;2023-08-06T13:19:29;8.38;;;7.88;;
49440;SDS011;35317;51.978;6.296;2023-08-06T13:24:30;6.65;;;6.15;;
49440;SDS011;35317;51.978;6.296;2023-08-06T13:29:31;6.93;;;6.40;;
49440;SDS011;35317;51.978;6.296;2023-08-06T13:34:32;7.13;;;6.63;;
49440;SDS011;35317;51.978;6.296;2023-08-06T13:39:33;7.32;;;6.82;;
49440;SDS011;35317;51.978;6.296;2023-08-06T13:44:33;8.32;;;7.70;;
49440;SDS011;35317;51.978;6.296;2023-08-06T13:49:35;7.60;;;7.05;;
49440;SDS011;35317;51.978;6.296;2023-08-06T13:54:36;7.78;;;7.18;;
49440;SDS011;35317;51.978;6.296;2023-08-06T13:59:37;7.10;;;6.60;;
49440;SDS011;35317;51.978;6.296;2023-08-06T14:04:38;7.68;;;6.95;;
49440;SDS011;35317;51.978;6.296;2023-08-06T14:09:40;8.73;;;7.90;;
49440;SDS011;35317;51.978;6.296;2023-08-06T14:14:42;7.93;;;7.32;;
49440;SDS011;35317;51.978;6.296;2023-08-06T14:19:49;7.97;;;7.38;;
49440;SDS011;35317;51.978;6.296;2023-08-06T14:24:50;7.68;;;7.15;;
49440;SDS011;35317;51.978;6.296;2023-08-06T14:29:50;8.25;;;7.65;;
49440;SDS011;35317;51.978;6.296;2023-08-06T14:34:51;8.50;;;7.70;;
49440;SDS011;35317;51.978;6.296;2023-08-06T14:39:52;7.90;;;7.30;;
49440;SDS011;35317;51.978;6.296;2023-08-06T14:44:53;8.38;;;7.68;;
49440;SDS011;35317;51.978;6.296;2023-08-06T14:49:54;9.85;;;7.40;;
49440;SDS011;35317;51.978;6.296;2023-08-06T14:54:55;8.40;;;7.53;;
49440;SDS011;35317;51.978;6.296;2023-08-06T14:59:56;9.07;;;8.18;;
49440;SDS011;35317;51.978;6.296;2023-08-06T15:04:56;9.73;;;8.68;;
49440;SDS011;35317;51.978;6.296;2023-08-06T15:09:57;12.43;;;8.85;;
49440;SDS011;35317;51.978;6.296;2023-08-06T15:14:58;10.60;;;9.52;;
49440;SDS011;35317;51.978;6.296;2023-08-06T15:20:01;11.93;;;10.40;;
49440;SDS011;35317;51.978;6.296;2023-08-06T15:25:03;12.13;;;10.45;;
49440;SDS011;35317;51.978;6.296;2023-08-06T15:30:04;12.10;;;10.90;;
49440;SDS011;35317;51.978;6.296;2023-08-06T15:35:06;12.15;;;10.93;;
49440;SDS011;35317;51.978;6.296;2023-08-06T15:40:08;15.68;;;11.48;;
49440;SDS011;35317;51.978;6.296;2023-08-06T15:45:10;13.35;;;11.60;;
49440;SDS011;35317;51.978;6.296;2023-08-06T15:50:11;14.05;;;11.25;;
49440;SDS011;35317;51.978;6.296;2023-08-06T15:55:11;14.80;;;11.88;;
49440;SDS011;35317;51.978;6.296;2023-08-06T16:00:12;13.15;;;10.90;;
49440;SDS011;35317;51.978;6.296;2023-08-06T16:05:13;14.80;;;11.80;;
49440;SDS011;35317;51.978;6.296;2023-08-06T16:10:14;15.05;;;11.45;;
49440;SDS011;35317;51.978;6.296;2023-08-06T16:15:15;13.05;;;11.77;;
49440;SDS011;35317;51.978;6.296;2023-08-06T16:20:19;11.35;;;10.25;;
49440;SDS011;35317;51.978;6.296;2023-08-06T16:25:20;12.63;;;11.07;;
49440;SDS011;35317;51.978;6.296;2023-08-06T16:30:20;11.93;;;9.75;;
49440;SDS011;35317;51.978;6.296;2023-08-06T16:35:21;9.55;;;8.63;;
49440;SDS011;35317;51.978;6.296;2023-08-06T16:40:22;8.57;;;7.85;;
49440;SDS011;35317;51.978;6.296;2023-08-06T16:45:23;8.10;;;7.50;;
49440;SDS011;35317;51.978;6.296;2023-08-06T16:50:24;7.80;;;6.80;;
49440;SDS011;35317;51.978;6.296;2023-08-06T16:55:25;22.60;;;21.08;;
49440;SDS011;35317;51.978;6.296;2023-08-06T17:00:26;6.45;;;5.82;;
49440;SDS011;35317;51.978;6.296;2023-08-06T17:05:27;6.90;;;6.25;;
49440;SDS011;35317;51.978;6.296;2023-08-06T17:10:32;7.45;;;6.55;;
49440;SDS011;35317;51.978;6.296;2023-08-06T17:15:34;6.88;;;6.35;;
49440;SDS011;35317;51.978;6.296;2023-08-06T17:20:35;9.20;;;6.57;;
49440;SDS011;35317;51.978;6.296;2023-08-06T17:25:35;7.95;;;6.15;;
49440;SDS011;35317;51.978;6.296;2023-08-06T17:30:38;6.60;;;6.10;;
49440;SDS011;35317;51.978;6.296;2023-08-06T17:35:41;7.53;;;6.10;;
49440;SDS011;35317;51.978;6.296;2023-08-06T17:40:43;8.68;;;6.10;;
49440;SDS011;35317;51.978;6.296;2023-08-06T17:45:45;7.63;;;6.03;;
49440;SDS011;35317;51.978;6.296;2023-08-06T17:50:45;8.50;;;7.57;;
49440;SDS011;35317;51.978;6.296;2023-08-06T17:55:46;7.32;;;5.80;;
49440;SDS011;35317;51.978;6.296;2023-08-06T18:00:48;5.88;;;5.47;;
49440;SDS011;35317;51.978;6.296;2023-08-06T18:05:56;6.05;;;5.75;;
49440;SDS011;35317;51.978;6.296;2023-08-06T18:10:58;8.63;;;6.30;;
49440;SDS011;35317;51.978;6.296;2023-08-06T18:15:58;6.30;;;5.72;;
49440;SDS011;35317;51.978;6.296;2023-08-06T18:20:59;6.32;;;5.65;;
49440;SDS011;35317;51.978;6.296;2023-08-06T18:26:00;6.30;;;5.72;;
49440;SDS011;35317;51.978;6.296;2023-08-06T18:31:03;6.80;;;6.10;;
49440;SDS011;35317;51.978;6.296;2023-08-06T18:36:04;6.22;;;5.68;;
49440;SDS011;35317;51.978;6.296;2023-08-06T18:41:05;6.65;;;5.80;;
49440;SDS011;35317;51.978;6.296;2023-08-06T18:46:06;5.65;;;5.25;;
49440;SDS011;35317;51.978;6.296;2023-08-06T18:51:06;5.82;;;5.43;;
49440;SDS011;35317;51.978;6.296;2023-08-06T18:56:07;7.00;;;5.80;;
49440;SDS011;35317;51.978;6.296;2023-08-06T19:01:08;6.40;;;5.82;;
49440;SDS011;35317;51.978;6.296;2023-08-06T19:06:09;6.75;;;5.70;;
49440;SDS011;35317;51.978;6.296;2023-08-06T19:11:09;7.75;;;6.82;;
49440;SDS011;35317;51.978;6.296;2023-08-06T19:16:10;11.52;;;5.80;;
49440;SDS011;35317;51.978;6.296;2023-08-06T19:21:11;7.78;;;6.03;;
49440;SDS011;35317;51.978;6.296;2023-08-06T19:26:12;7.85;;;6.32;;
49440;SDS011;35317;51.978;6.296;2023-08-06T19:31:13;6.25;;;5.57;;
49440;SDS011;35317;51.978;6.296;2023-08-06T19:36:13;11.20;;;5.93;;
49440;SDS011;35317;51.978;6.296;2023-08-06T19:41:15;10.50;;;6.40;;
49440;SDS011;35317;51.978;6.296;2023-08-06T19:46:16;11.73;;;6.35;;
49440;SDS011;35317;51.978;6.296;2023-08-06T19:51:17;13.45;;;6.50;;
49440;SDS011;35317;51.978;6.296;2023-08-06T19:56:19;9.65;;;6.63;;
49440;SDS011;35317;51.978;6.296;2023-08-06T20:01:20;9.88;;;6.30;;
49440;SDS011;35317;51.978;6.296;2023-08-06T20:06:21;15.85;;;7.20;;
49440;SDS011;35317;51.978;6.296;2023-08-06T20:11:30;9.07;;;6.20;;
49440;SDS011;35317;51.978;6.296;2023-08-06T20:16:34;12.35;;;6.72;;
49440;SDS011;35317;51.978;6.296;2023-08-06T20:21:35;8.38;;;6.65;;
49440;SDS011;35317;51.978;6.296;2023-08-06T20:26:35;7.00;;;6.50;;
49440;SDS011;35317;51.978;6.296;2023-08-06T20:31:36;10.02;;;7.28;;
49440;SDS011;35317;51.978;6.296;2023-08-06T20:36:37;11.13;;;7.20;;
49440;SDS011;35317;51.978;6.296;2023-08-06T20:41:38;7.03;;;6.47;;
49440;SDS011;35317;51.978;6.296;2023-08-06T20:46:39;9.80;;;6.68;;
49440;SDS011;35317;51.978;6.296;2023-08-06T20:51:39;6.72;;;6.13;;
49440;SDS011;35317;51.978;6.296;2023-08-06T20:56:40;8.30;;;7.40;;
49440;SDS011;35317;51.978;6.296;2023-08-06T21:01:41;7.57;;;6.88;;
49440;SDS011;35317;51.978;6.296;2023-08-06T21:06:42;8.32;;;7.50;;
49440;SDS011;35317;51.978;6.296;2023-08-06T21:11:42;8.18;;;7.35;;
49440;SDS011;35317;51.978;6.296;2023-08-06T21:16:43;8.23;;;7.55;;
49440;SDS011;35317;51.978;6.296;2023-08-06T21:21:44;8.25;;;7.40;;
49440;SDS011;35317;51.978;6.296;2023-08-06T21:26:45;9.18;;;7.32;;
49440;SDS011;35317;51.978;6.296;2023-08-06T21:31:46;9.57;;;6.57;;
49440;SDS011;35317;51.978;6.296;2023-08-06T21:36:47;10.10;;;9.35;;
49440;SDS011;35317;51.978;6.296;2023-08-06T21:41:50;8.18;;;7.10;;
49440;SDS011;35317;51.978;6.296;2023-08-06T21:46:51;8.48;;;7.85;;
49440;SDS011;35317;51.978;6.296;2023-08-06T21:51:52;7.88;;;7.38;;
49440;SDS011;35317;51.978;6.296;2023-08-06T21:56:52;7.80;;;7.18;;
49440;SDS011;35317;51.978;6.296;2023-08-06T22:01:53;10.52;;;7.43;;
49440;SDS011;35317;51.978;6.296;2023-08-06T22:06:54;7.20;;;6.50;;
49440;SDS011;35317;51.978;6.296;2023-08-06T22:11:55;7.43;;;6.70;;
49440;SDS011;35317;51.978;6.296;2023-08-06T22:16:55;7.28;;;6.72;;
49440;SDS011;35317;51.978;6.296;2023-08-06T22:21:56;7.22;;;6.82;;
49440;SDS011;35317;51.978;6.296;2023-08-06T22:26:57;7.50;;;6.90;;
49440;SDS011;35317;51.978;6.296;2023-08-06T22:31:58;6.80;;;6.20;;
49440;SDS011;35317;51.978;6.296;2023-08-06T22:36:59;6.60;;;6.00;;
49440;SDS011;35317;51.978;6.296;2023-08-06T22:42:00;8.55;;;7.75;;
49440;SDS011;35317;51.978;6.296;2023-08-06T22:47:01;7.13;;;6.43;;
49440;SDS011;35317;51.978;6.296;2023-08-06T22:52:02;7.10;;;6.50;;
49440;SDS011;35317;51.978;6.296;2023-08-06T22:57:03;9.05;;;6.30;;
49440;SDS011;35317;51.978;6.296;2023-08-06T23:02:05;6.75;;;6.15;;
49440;SDS011;35317;51.978;6.296;2023-08-06T23:07:06;6.80;;;5.97;;
49440;SDS011;35317;51.978;6.296;2023-08-06T23:12:07;8.32;;;6.22;;
49440;SDS011;35317;51.978;6.296;2023-08-06T23:17:08;9.45;;;6.35;;
49440;SDS011;35317;51.978;6.296;2023-08-06T23:22:11;8.40;;;6.10;;
49440;SDS011;35317;51.978;6.296;2023-08-06T23:27:12;6.90;;;6.10;;
49440;SDS011;35317;51.978;6.296;2023-08-06T23:32:12;10.63;;;6.82;;
49440;SDS011;35317;51.978;6.296;2023-08-06T23:37:13;8.00;;;6.45;;
49440;SDS011;35317;51.978;6.296;2023-08-06T23:42:14;8.55;;;6.10;;
49440;SDS011;35317;51.978;6.296;2023-08-06T23:47:15;7.22;;;6.10;;
49440;SDS011;35317;51.978;6.296;2023-08-06T23:52:15;8.43;;;5.80;;
49440;SDS011;35317;51.978;6.296;2023-08-06T23:57:16;6.45;;;5.93;;
